sensor_id;sensor_type;location;lat;lon;timestamp;P1;durP1;ratioP1;P2;durP2;ratioP2
22007;SDS011;11168;56.976;24.168;2023-02-22T00:01:33;11.93;;;6.45;;
22007;SDS011;11168;56.976;24.168;2023-02-22T00:04:04;14.02;;;6.43;;
22007;SDS011;11168;56.976;24.168;2023-02-22T00:06:32;11.55;;;6.57;;
22007;SDS011;11168;56.976;24.168;2023-02-22T00:08:59;11.73;;;6.22;;
22007;SDS011;11168;56.976;24.168;2023-02-22T00:11:27;12.63;;;6.50;;
22007;SDS011;11168;56.976;24.168;2023-02-22T00:13:56;14.95;;;7.47;;
22007;SDS011;11168;56.976;24.168;2023-02-22T00:16:24;16.85;;;7.65;;
22007;SDS011;11168;56.976;24.168;2023-02-22T00:18:51;15.02;;;7.70;;
22007;SDS011;11168;56.976;24.168;2023-02-22T00:21:20;14.35;;;7.30;;
22007;SDS011;11168;56.976;24.168;2023-02-22T00:23:47;13.43;;;7.50;;
22007;SDS011;11168;56.976;24.168;2023-02-22T00:26:19;12.50;;;6.65;;
22007;SDS011;11168;56.976;24.168;2023-02-22T00:28:50;14.10;;;6.47;;
22007;SDS011;11168;56.976;24.168;2023-02-22T00:31:18;12.70;;;7.07;;
22007;SDS011;11168;56.976;24.168;2023-02-22T00:33:46;13.85;;;7.15;;
22007;SDS011;11168;56.976;24.168;2023-02-22T00:36:13;13.98;;;7.32;;
22007;SDS011;11168;56.976;24.168;2023-02-22T00:38:40;15.30;;;8.02;;
22007;SDS011;11168;56.976;24.168;2023-02-22T00:41:08;15.20;;;7.43;;
22007;SDS011;11168;56.976;24.168;2023-02-22T00:43:35;14.73;;;6.97;;
22007;SDS011;11168;56.976;24.168;2023-02-22T00:46:02;15.82;;;7.47;;
22007;SDS011;11168;56.976;24.168;2023-02-22T00:48:29;14.35;;;7.35;;
22007;SDS011;11168;56.976;24.168;2023-02-22T00:50:56;17.05;;;8.48;;
22007;SDS011;11168;56.976;24.168;2023-02-22T00:53:24;13.80;;;7.50;;
22007;SDS011;11168;56.976;24.168;2023-02-22T00:55:51;13.35;;;7.05;;
22007;SDS011;11168;56.976;24.168;2023-02-22T00:58:19;12.88;;;6.57;;
22007;SDS011;11168;56.976;24.168;2023-02-22T01:00:47;10.95;;;6.57;;
22007;SDS011;11168;56.976;24.168;2023-02-22T01:03:16;15.48;;;7.60;;
22007;SDS011;11168;56.976;24.168;2023-02-22T01:05:44;9.18;;;5.47;;
22007;SDS011;11168;56.976;24.168;2023-02-22T01:08:12;14.02;;;6.80;;
22007;SDS011;11168;56.976;24.168;2023-02-22T01:10:41;13.25;;;6.55;;
22007;SDS011;11168;56.976;24.168;2023-02-22T01:13:08;13.95;;;7.43;;
22007;SDS011;11168;56.976;24.168;2023-02-22T01:15:39;11.63;;;6.00;;
22007;SDS011;11168;56.976;24.168;2023-02-22T01:18:10;9.75;;;5.38;;
22007;SDS011;11168;56.976;24.168;2023-02-22T01:20:38;10.43;;;4.90;;
22007;SDS011;11168;56.976;24.168;2023-02-22T01:23:05;13.68;;;5.80;;
22007;SDS011;11168;56.976;24.168;2023-02-22T01:25:35;13.82;;;6.60;;
22007;SDS011;11168;56.976;24.168;2023-02-22T01:28:03;14.85;;;6.30;;
22007;SDS011;11168;56.976;24.168;2023-02-22T01:30:33;12.20;;;6.03;;
22007;SDS011;11168;56.976;24.168;2023-02-22T01:33:02;12.25;;;6.22;;
22007;SDS011;11168;56.976;24.168;2023-02-22T01:35:32;13.05;;;6.70;;
22007;SDS011;11168;56.976;24.168;2023-02-22T01:38:01;12.18;;;6.65;;
22007;SDS011;11168;56.976;24.168;2023-02-22T01:40:29;12.70;;;5.93;;
22007;SDS011;11168;56.976;24.168;2023-02-22T01:43:02;11.02;;;6.07;;
22007;SDS011;11168;56.976;24.168;2023-02-22T01:45:49;14.63;;;6.75;;
22007;SDS011;11168;56.976;24.168;2023-02-22T01:48:25;15.48;;;6.13;;
22007;SDS011;11168;56.976;24.168;2023-02-22T01:51:03;12.07;;;6.85;;
22007;SDS011;11168;56.976;24.168;2023-02-22T01:53:40;11.50;;;5.93;;
22007;SDS011;11168;56.976;24.168;2023-02-22T01:56:20;11.55;;;5.93;;
22007;SDS011;11168;56.976;24.168;2023-02-22T01:58:52;11.63;;;5.97;;
22007;SDS011;11168;56.976;24.168;2023-02-22T02:01:24;11.30;;;6.50;;
22007;SDS011;11168;56.976;24.168;2023-02-22T02:03:53;12.45;;;6.63;;
22007;SDS011;11168;56.976;24.168;2023-02-22T02:06:23;13.15;;;5.95;;
22007;SDS011;11168;56.976;24.168;2023-02-22T02:09:01;11.90;;;6.82;;
22007;SDS011;11168;56.976;24.168;2023-02-22T02:11:36;12.57;;;6.30;;
22007;SDS011;11168;56.976;24.168;2023-02-22T02:14:06;11.73;;;6.32;;
22007;SDS011;11168;56.976;24.168;2023-02-22T02:16:42;13.00;;;5.93;;
22007;SDS011;11168;56.976;24.168;2023-02-22T02:20:03;12.20;;;5.93;;
22007;SDS011;11168;56.976;24.168;2023-02-22T02:22:07;11.70;;;5.20;;
22007;SDS011;11168;56.976;24.168;2023-02-22T02:24:51;10.70;;;5.38;;
22007;SDS011;11168;56.976;24.168;2023-02-22T02:32:55;12.18;;;6.32;;
22007;SDS011;11168;56.976;24.168;2023-02-22T02:49:04;11.25;;;6.32;;
22007;SDS011;11168;56.976;24.168;2023-02-22T02:51:37;12.98;;;6.15;;
22007;SDS011;11168;56.976;24.168;2023-02-22T02:54:07;11.82;;;6.03;;
22007;SDS011;11168;56.976;24.168;2023-02-22T02:56:35;11.25;;;5.90;;
22007;SDS011;11168;56.976;24.168;2023-02-22T02:59:02;10.65;;;6.22;;
22007;SDS011;11168;56.976;24.168;2023-02-22T03:09:58;9.07;;;5.75;;
22007;SDS011;11168;56.976;24.168;2023-02-22T03:12:47;11.95;;;6.55;;
22007;SDS011;11168;56.976;24.168;2023-02-22T03:18:14;11.43;;;5.25;;
22007;SDS011;11168;56.976;24.168;2023-02-22T03:20:55;11.68;;;6.18;;
22007;SDS011;11168;56.976;24.168;2023-02-22T03:26:09;10.07;;;5.65;;
22007;SDS011;11168;56.976;24.168;2023-02-22T03:28:45;12.05;;;5.38;;
22007;SDS011;11168;56.976;24.168;2023-02-22T03:31:20;13.90;;;5.93;;
22007;SDS011;11168;56.976;24.168;2023-02-22T03:33:52;15.52;;;6.20;;
22007;SDS011;11168;56.976;24.168;2023-02-22T03:36:30;13.05;;;6.80;;
22007;SDS011;11168;56.976;24.168;2023-02-22T03:39:00;11.13;;;5.90;;
22007;SDS011;11168;56.976;24.168;2023-02-22T03:41:29;11.20;;;6.20;;
22007;SDS011;11168;56.976;24.168;2023-02-22T03:44:02;13.02;;;6.80;;
22007;SDS011;11168;56.976;24.168;2023-02-22T03:46:32;10.05;;;5.55;;
22007;SDS011;11168;56.976;24.168;2023-02-22T03:49:03;9.20;;;5.25;;
22007;SDS011;11168;56.976;24.168;2023-02-22T03:51:32;11.60;;;5.85;;
22007;SDS011;11168;56.976;24.168;2023-02-22T03:53:59;10.07;;;5.72;;
22007;SDS011;11168;56.976;24.168;2023-02-22T03:56:29;10.77;;;5.72;;
22007;SDS011;11168;56.976;24.168;2023-02-22T03:59:04;12.05;;;5.78;;
22007;SDS011;11168;56.976;24.168;2023-02-22T04:01:35;11.00;;;6.20;;
22007;SDS011;11168;56.976;24.168;2023-02-22T04:04:02;10.45;;;5.47;;
22007;SDS011;11168;56.976;24.168;2023-02-22T04:06:29;10.40;;;5.38;;
22007;SDS011;11168;56.976;24.168;2023-02-22T04:08:56;11.70;;;5.45;;
22007;SDS011;11168;56.976;24.168;2023-02-22T04:11:23;11.07;;;5.75;;
22007;SDS011;11168;56.976;24.168;2023-02-22T04:13:50;11.23;;;5.97;;
22007;SDS011;11168;56.976;24.168;2023-02-22T04:16:20;9.23;;;5.53;;
22007;SDS011;11168;56.976;24.168;2023-02-22T04:18:47;10.38;;;6.00;;
22007;SDS011;11168;56.976;24.168;2023-02-22T04:21:13;13.07;;;5.07;;
22007;SDS011;11168;56.976;24.168;2023-02-22T04:23:41;10.90;;;6.30;;
22007;SDS011;11168;56.976;24.168;2023-02-22T04:26:08;12.15;;;6.20;;
22007;SDS011;11168;56.976;24.168;2023-02-22T04:28:35;11.98;;;6.45;;
22007;SDS011;11168;56.976;24.168;2023-02-22T04:31:02;12.85;;;5.63;;
22007;SDS011;11168;56.976;24.168;2023-02-22T04:33:29;10.20;;;5.70;;
22007;SDS011;11168;56.976;24.168;2023-02-22T04:35:55;11.57;;;6.32;;
22007;SDS011;11168;56.976;24.168;2023-02-22T04:38:25;11.45;;;5.63;;
22007;SDS011;11168;56.976;24.168;2023-02-22T04:40:52;7.97;;;4.82;;
22007;SDS011;11168;56.976;24.168;2023-02-22T04:43:20;12.18;;;5.90;;
22007;SDS011;11168;56.976;24.168;2023-02-22T04:45:47;12.63;;;6.30;;
22007;SDS011;11168;56.976;24.168;2023-02-22T04:48:14;13.52;;;5.72;;
22007;SDS011;11168;56.976;24.168;2023-02-22T04:50:41;10.77;;;5.20;;
22007;SDS011;11168;56.976;24.168;2023-02-22T04:53:08;11.38;;;5.63;;
22007;SDS011;11168;56.976;24.168;2023-02-22T04:55:35;11.35;;;5.97;;
22007;SDS011;11168;56.976;24.168;2023-02-22T04:58:02;7.97;;;4.95;;
22007;SDS011;11168;56.976;24.168;2023-02-22T05:00:29;11.18;;;5.78;;
22007;SDS011;11168;56.976;24.168;2023-02-22T05:02:56;11.23;;;5.45;;
22007;SDS011;11168;56.976;24.168;2023-02-22T05:05:23;10.60;;;5.93;;
22007;SDS011;11168;56.976;24.168;2023-02-22T05:07:50;14.45;;;6.15;;
22007;SDS011;11168;56.976;24.168;2023-02-22T05:10:17;10.73;;;5.90;;
22007;SDS011;11168;56.976;24.168;2023-02-22T05:12:45;15.93;;;6.43;;
22007;SDS011;11168;56.976;24.168;2023-02-22T05:15:16;14.10;;;6.00;;
22007;SDS011;11168;56.976;24.168;2023-02-22T05:17:44;11.93;;;6.20;;
22007;SDS011;11168;56.976;24.168;2023-02-22T05:22:56;9.25;;;5.43;;
22007;SDS011;11168;56.976;24.168;2023-02-22T05:25:24;12.88;;;6.05;;
22007;SDS011;11168;56.976;24.168;2023-02-22T05:27:52;11.77;;;6.45;;
22007;SDS011;11168;56.976;24.168;2023-02-22T05:30:23;12.13;;;5.80;;
22007;SDS011;11168;56.976;24.168;2023-02-22T05:32:52;11.05;;;5.70;;
22007;SDS011;11168;56.976;24.168;2023-02-22T05:35:20;11.27;;;5.72;;
22007;SDS011;11168;56.976;24.168;2023-02-22T05:37:48;11.32;;;5.95;;
22007;SDS011;11168;56.976;24.168;2023-02-22T05:40:19;13.00;;;6.45;;
22007;SDS011;11168;56.976;24.168;2023-02-22T05:42:48;12.30;;;6.00;;
22007;SDS011;11168;56.976;24.168;2023-02-22T05:45:16;11.23;;;5.97;;
22007;SDS011;11168;56.976;24.168;2023-02-22T05:47:45;12.13;;;6.10;;
22007;SDS011;11168;56.976;24.168;2023-02-22T05:50:13;10.88;;;5.95;;
22007;SDS011;11168;56.976;24.168;2023-02-22T05:52:40;14.77;;;6.30;;
22007;SDS011;11168;56.976;24.168;2023-02-22T05:55:08;15.75;;;6.05;;
22007;SDS011;11168;56.976;24.168;2023-02-22T05:57:36;11.23;;;6.45;;
22007;SDS011;11168;56.976;24.168;2023-02-22T06:00:06;14.50;;;6.47;;
22007;SDS011;11168;56.976;24.168;2023-02-22T06:02:35;11.63;;;6.32;;
22007;SDS011;11168;56.976;24.168;2023-02-22T06:05:02;14.25;;;6.78;;
22007;SDS011;11168;56.976;24.168;2023-02-22T06:07:29;13.43;;;5.90;;
22007;SDS011;11168;56.976;24.168;2023-02-22T06:09:56;11.38;;;6.18;;
22007;SDS011;11168;56.976;24.168;2023-02-22T06:12:23;10.65;;;6.32;;
22007;SDS011;11168;56.976;24.168;2023-02-22T06:14:49;14.82;;;6.53;;
22007;SDS011;11168;56.976;24.168;2023-02-22T06:17:16;10.75;;;6.50;;
22007;SDS011;11168;56.976;24.168;2023-02-22T06:19:45;13.30;;;6.57;;
22007;SDS011;11168;56.976;24.168;2023-02-22T06:22:16;12.52;;;6.18;;
22007;SDS011;11168;56.976;24.168;2023-02-22T06:24:44;12.40;;;5.57;;
22007;SDS011;11168;56.976;24.168;2023-02-22T06:27:11;11.40;;;6.18;;
22007;SDS011;11168;56.976;24.168;2023-02-22T06:29:38;11.40;;;5.80;;
22007;SDS011;11168;56.976;24.168;2023-02-22T06:32:09;12.02;;;6.40;;
22007;SDS011;11168;56.976;24.168;2023-02-22T06:34:36;12.90;;;6.32;;
22007;SDS011;11168;56.976;24.168;2023-02-22T06:37:03;11.75;;;6.25;;
22007;SDS011;11168;56.976;24.168;2023-02-22T06:39:30;14.63;;;6.65;;
22007;SDS011;11168;56.976;24.168;2023-02-22T06:41:58;11.48;;;6.43;;
22007;SDS011;11168;56.976;24.168;2023-02-22T06:44:25;11.73;;;5.78;;
22007;SDS011;11168;56.976;24.168;2023-02-22T06:46:52;15.00;;;6.55;;
22007;SDS011;11168;56.976;24.168;2023-02-22T06:49:19;13.75;;;6.50;;
22007;SDS011;11168;56.976;24.168;2023-02-22T06:51:46;14.80;;;7.10;;
22007;SDS011;11168;56.976;24.168;2023-02-22T06:54:13;17.20;;;6.72;;
22007;SDS011;11168;56.976;24.168;2023-02-22T06:56:40;15.25;;;6.68;;
22007;SDS011;11168;56.976;24.168;2023-02-22T06:59:07;12.05;;;6.65;;
22007;SDS011;11168;56.976;24.168;2023-02-22T07:01:34;13.30;;;6.10;;
22007;SDS011;11168;56.976;24.168;2023-02-22T07:04:01;12.63;;;6.78;;
22007;SDS011;11168;56.976;24.168;2023-02-22T07:06:29;13.93;;;7.30;;
22007;SDS011;11168;56.976;24.168;2023-02-22T07:08:56;13.65;;;7.13;;
22007;SDS011;11168;56.976;24.168;2023-02-22T07:11:23;14.82;;;7.00;;
22007;SDS011;11168;56.976;24.168;2023-02-22T07:13:50;13.20;;;6.28;;
22007;SDS011;11168;56.976;24.168;2023-02-22T07:16:17;15.40;;;7.07;;
22007;SDS011;11168;56.976;24.168;2023-02-22T07:18:44;13.57;;;7.00;;
22007;SDS011;11168;56.976;24.168;2023-02-22T07:21:11;14.73;;;7.32;;
22007;SDS011;11168;56.976;24.168;2023-02-22T07:23:38;13.15;;;7.30;;
22007;SDS011;11168;56.976;24.168;2023-02-22T07:26:05;13.35;;;7.50;;
22007;SDS011;11168;56.976;24.168;2023-02-22T07:28:32;14.63;;;7.75;;
22007;SDS011;11168;56.976;24.168;2023-02-22T07:30:59;18.95;;;8.55;;
22007;SDS011;11168;56.976;24.168;2023-02-22T07:33:26;16.58;;;7.63;;
22007;SDS011;11168;56.976;24.168;2023-02-22T07:35:54;20.00;;;8.85;;
22007;SDS011;11168;56.976;24.168;2023-02-22T07:38:21;18.00;;;9.55;;
22007;SDS011;11168;56.976;24.168;2023-02-22T07:40:48;19.08;;;9.45;;
22007;SDS011;11168;56.976;24.168;2023-02-22T07:43:19;16.35;;;7.28;;
22007;SDS011;11168;56.976;24.168;2023-02-22T07:45:50;15.40;;;7.57;;
22007;SDS011;11168;56.976;24.168;2023-02-22T07:48:19;17.25;;;7.28;;
22007;SDS011;11168;56.976;24.168;2023-02-22T07:50:48;16.83;;;7.97;;
22007;SDS011;11168;56.976;24.168;2023-02-22T07:53:20;20.13;;;8.68;;
22007;SDS011;11168;56.976;24.168;2023-02-22T07:55:49;19.23;;;8.20;;
22007;SDS011;11168;56.976;24.168;2023-02-22T07:58:20;12.98;;;6.15;;
22007;SDS011;11168;56.976;24.168;2023-02-22T08:00:49;16.92;;;7.57;;
22007;SDS011;11168;56.976;24.168;2023-02-22T08:03:18;13.15;;;6.97;;
22007;SDS011;11168;56.976;24.168;2023-02-22T08:05:47;14.43;;;6.90;;
22007;SDS011;11168;56.976;24.168;2023-02-22T08:08:19;16.58;;;7.38;;
22007;SDS011;11168;56.976;24.168;2023-02-22T08:10:49;17.05;;;6.90;;
22007;SDS011;11168;56.976;24.168;2023-02-22T08:13:18;12.40;;;6.80;;
22007;SDS011;11168;56.976;24.168;2023-02-22T08:15:49;13.93;;;6.93;;
22007;SDS011;11168;56.976;24.168;2023-02-22T08:18:20;15.60;;;7.28;;
22007;SDS011;11168;56.976;24.168;2023-02-22T08:20:48;12.20;;;6.05;;
22007;SDS011;11168;56.976;24.168;2023-02-22T08:23:17;15.68;;;6.95;;
22007;SDS011;11168;56.976;24.168;2023-02-22T08:25:45;13.13;;;6.93;;
22007;SDS011;11168;56.976;24.168;2023-02-22T08:28:13;14.13;;;8.02;;
22007;SDS011;11168;56.976;24.168;2023-02-22T08:30:43;16.67;;;7.45;;
22007;SDS011;11168;56.976;24.168;2023-02-22T08:33:11;14.18;;;7.40;;
22007;SDS011;11168;56.976;24.168;2023-02-22T08:35:41;13.57;;;7.13;;
22007;SDS011;11168;56.976;24.168;2023-02-22T08:38:14;11.85;;;6.28;;
22007;SDS011;11168;56.976;24.168;2023-02-22T08:41:08;14.77;;;7.63;;
22007;SDS011;11168;56.976;24.168;2023-02-22T08:43:35;12.70;;;7.10;;
22007;SDS011;11168;56.976;24.168;2023-02-22T08:46:02;13.45;;;7.22;;
22007;SDS011;11168;56.976;24.168;2023-02-22T08:48:31;11.73;;;6.60;;
22007;SDS011;11168;56.976;24.168;2023-02-22T08:50:59;11.65;;;6.63;;
22007;SDS011;11168;56.976;24.168;2023-02-22T08:53:26;14.57;;;7.70;;
22007;SDS011;11168;56.976;24.168;2023-02-22T08:55:53;15.55;;;7.35;;
22007;SDS011;11168;56.976;24.168;2023-02-22T08:58:20;12.00;;;6.75;;
22007;SDS011;11168;56.976;24.168;2023-02-22T09:00:47;12.82;;;7.00;;
22007;SDS011;11168;56.976;24.168;2023-02-22T09:03:14;12.80;;;6.80;;
22007;SDS011;11168;56.976;24.168;2023-02-22T09:05:42;14.30;;;7.80;;
22007;SDS011;11168;56.976;24.168;2023-02-22T09:08:10;13.00;;;7.47;;
22007;SDS011;11168;56.976;24.168;2023-02-22T09:10:37;14.18;;;7.60;;
22007;SDS011;11168;56.976;24.168;2023-02-22T09:13:04;14.32;;;7.78;;
22007;SDS011;11168;56.976;24.168;2023-02-22T09:15:31;13.55;;;7.57;;
22007;SDS011;11168;56.976;24.168;2023-02-22T09:18:01;14.52;;;8.30;;
22007;SDS011;11168;56.976;24.168;2023-02-22T09:20:30;17.27;;;8.13;;
22007;SDS011;11168;56.976;24.168;2023-02-22T09:22:57;15.68;;;8.65;;
22007;SDS011;11168;56.976;24.168;2023-02-22T09:25:24;18.52;;;8.60;;
22007;SDS011;11168;56.976;24.168;2023-02-22T09:27:52;14.90;;;8.63;;
22007;SDS011;11168;56.976;24.168;2023-02-22T09:33:02;14.57;;;8.60;;
22007;SDS011;11168;56.976;24.168;2023-02-22T09:35:31;15.55;;;8.85;;
22007;SDS011;11168;56.976;24.168;2023-02-22T09:38:02;17.83;;;9.13;;
22007;SDS011;11168;56.976;24.168;2023-02-22T09:40:32;17.13;;;9.25;;
22007;SDS011;11168;56.976;24.168;2023-02-22T09:43:08;13.57;;;7.75;;
22007;SDS011;11168;56.976;24.168;2023-02-22T09:48:22;16.30;;;7.88;;
22007;SDS011;11168;56.976;24.168;2023-02-22T09:50:51;15.23;;;8.73;;
22007;SDS011;11168;56.976;24.168;2023-02-22T09:53:40;13.32;;;8.05;;
22007;SDS011;11168;56.976;24.168;2023-02-22T09:56:10;15.95;;;7.53;;
22007;SDS011;11168;56.976;24.168;2023-02-22T09:58:43;15.55;;;8.63;;
22007;SDS011;11168;56.976;24.168;2023-02-22T10:01:26;18.30;;;8.43;;
22007;SDS011;11168;56.976;24.168;2023-02-22T10:04:08;17.33;;;9.00;;
22007;SDS011;11168;56.976;24.168;2023-02-22T10:09:32;16.08;;;8.45;;
22007;SDS011;11168;56.976;24.168;2023-02-22T10:12:27;14.65;;;7.93;;
22007;SDS011;11168;56.976;24.168;2023-02-22T10:15:12;14.55;;;7.78;;
22007;SDS011;11168;56.976;24.168;2023-02-22T10:26:21;13.82;;;8.68;;
22007;SDS011;11168;56.976;24.168;2023-02-22T10:29:01;15.23;;;8.82;;
22007;SDS011;11168;56.976;24.168;2023-02-22T10:31:51;14.02;;;7.65;;
22007;SDS011;11168;56.976;24.168;2023-02-22T10:34:23;17.48;;;9.00;;
22007;SDS011;11168;56.976;24.168;2023-02-22T10:36:58;16.05;;;8.80;;
22007;SDS011;11168;56.976;24.168;2023-02-22T10:39:45;14.95;;;8.23;;
22007;SDS011;11168;56.976;24.168;2023-02-22T10:42:15;14.30;;;7.78;;
22007;SDS011;11168;56.976;24.168;2023-02-22T10:44:42;14.38;;;8.10;;
22007;SDS011;11168;56.976;24.168;2023-02-22T10:47:11;14.18;;;8.02;;
22007;SDS011;11168;56.976;24.168;2023-02-22T10:49:45;16.98;;;8.50;;
22007;SDS011;11168;56.976;24.168;2023-02-22T10:52:21;18.05;;;9.68;;
22007;SDS011;11168;56.976;24.168;2023-02-22T10:54:54;16.50;;;9.02;;
22007;SDS011;11168;56.976;24.168;2023-02-22T10:57:43;17.35;;;9.95;;
22007;SDS011;11168;56.976;24.168;2023-02-22T11:00:17;16.85;;;10.00;;
22007;SDS011;11168;56.976;24.168;2023-02-22T11:02:55;22.17;;;10.60;;
22007;SDS011;11168;56.976;24.168;2023-02-22T11:05:27;24.05;;;11.27;;
22007;SDS011;11168;56.976;24.168;2023-02-22T11:10:40;23.10;;;10.63;;
22007;SDS011;11168;56.976;24.168;2023-02-22T11:13:25;22.33;;;9.98;;
22007;SDS011;11168;56.976;24.168;2023-02-22T11:16:16;21.30;;;9.68;;
22007;SDS011;11168;56.976;24.168;2023-02-22T11:18:46;23.35;;;10.35;;
22007;SDS011;11168;56.976;24.168;2023-02-22T11:21:13;20.08;;;10.32;;
22007;SDS011;11168;56.976;24.168;2023-02-22T11:23:48;20.80;;;10.70;;
22007;SDS011;11168;56.976;24.168;2023-02-22T11:26:16;19.70;;;11.48;;
22007;SDS011;11168;56.976;24.168;2023-02-22T11:28:46;20.40;;;11.10;;
22007;SDS011;11168;56.976;24.168;2023-02-22T11:31:24;23.38;;;11.63;;
22007;SDS011;11168;56.976;24.168;2023-02-22T11:34:03;20.17;;;11.55;;
22007;SDS011;11168;56.976;24.168;2023-02-22T11:36:34;21.80;;;12.50;;
22007;SDS011;11168;56.976;24.168;2023-02-22T11:39:21;24.40;;;12.38;;
22007;SDS011;11168;56.976;24.168;2023-02-22T11:41:53;21.98;;;12.23;;
22007;SDS011;11168;56.976;24.168;2023-02-22T11:44:26;21.92;;;12.18;;
22007;SDS011;11168;56.976;24.168;2023-02-22T11:46:55;21.30;;;12.35;;
22007;SDS011;11168;56.976;24.168;2023-02-22T11:49:36;24.25;;;12.00;;
22007;SDS011;11168;56.976;24.168;2023-02-22T11:52:19;20.88;;;11.32;;
22007;SDS011;11168;56.976;24.168;2023-02-22T11:55:22;20.65;;;10.52;;
22007;SDS011;11168;56.976;24.168;2023-02-22T12:01:15;23.05;;;10.52;;
22007;SDS011;11168;56.976;24.168;2023-02-22T12:06:26;20.98;;;12.15;;
22007;SDS011;11168;56.976;24.168;2023-02-22T12:20:16;19.38;;;9.95;;
22007;SDS011;11168;56.976;24.168;2023-02-22T12:23:04;19.08;;;10.43;;
22007;SDS011;11168;56.976;24.168;2023-02-22T12:25:53;18.85;;;8.57;;
22007;SDS011;11168;56.976;24.168;2023-02-22T12:28:25;15.60;;;8.45;;
22007;SDS011;11168;56.976;24.168;2023-02-22T12:34:06;17.02;;;8.68;;
22007;SDS011;11168;56.976;24.168;2023-02-22T12:36:49;19.08;;;9.80;;
22007;SDS011;11168;56.976;24.168;2023-02-22T12:42:23;21.73;;;10.00;;
22007;SDS011;11168;56.976;24.168;2023-02-22T12:44:53;19.15;;;8.50;;
22007;SDS011;11168;56.976;24.168;2023-02-22T12:47:39;19.80;;;9.88;;
22007;SDS011;11168;56.976;24.168;2023-02-22T12:50:20;16.17;;;9.10;;
22007;SDS011;11168;56.976;24.168;2023-02-22T12:52:56;16.90;;;9.00;;
22007;SDS011;11168;56.976;24.168;2023-02-22T12:55:34;16.65;;;8.18;;
22007;SDS011;11168;56.976;24.168;2023-02-22T13:06:04;19.35;;;8.88;;
22007;SDS011;11168;56.976;24.168;2023-02-22T13:08:54;18.98;;;9.43;;
22007;SDS011;11168;56.976;24.168;2023-02-22T13:17:26;20.95;;;9.45;;
22007;SDS011;11168;56.976;24.168;2023-02-22T13:25:02;22.25;;;10.20;;
22007;SDS011;11168;56.976;24.168;2023-02-22T13:27:34;19.50;;;10.02;;
22007;SDS011;11168;56.976;24.168;2023-02-22T13:30:13;21.13;;;10.85;;
22007;SDS011;11168;56.976;24.168;2023-02-22T13:35:51;20.17;;;9.50;;
22007;SDS011;11168;56.976;24.168;2023-02-22T13:41:29;19.85;;;9.07;;
22007;SDS011;11168;56.976;24.168;2023-02-22T13:47:16;17.70;;;8.82;;
22007;SDS011;11168;56.976;24.168;2023-02-22T13:52:45;21.42;;;8.93;;
22007;SDS011;11168;56.976;24.168;2023-02-22T13:55:20;20.50;;;8.15;;
22007;SDS011;11168;56.976;24.168;2023-02-22T13:57:58;18.85;;;7.72;;
22007;SDS011;11168;56.976;24.168;2023-02-22T14:05:50;18.05;;;7.60;;
22007;SDS011;11168;56.976;24.168;2023-02-22T14:13:16;22.45;;;10.07;;
22007;SDS011;11168;56.976;24.168;2023-02-22T14:18:28;20.60;;;9.43;;
22007;SDS011;11168;56.976;24.168;2023-02-22T14:21:08;17.10;;;8.35;;
22007;SDS011;11168;56.976;24.168;2023-02-22T14:26:10;15.20;;;7.88;;
22007;SDS011;11168;56.976;24.168;2023-02-22T14:28:47;18.73;;;8.20;;
22007;SDS011;11168;56.976;24.168;2023-02-22T14:31:34;15.85;;;7.68;;
22007;SDS011;11168;56.976;24.168;2023-02-22T14:37:48;15.63;;;7.65;;
22007;SDS011;11168;56.976;24.168;2023-02-22T14:42:59;15.65;;;7.35;;
22007;SDS011;11168;56.976;24.168;2023-02-22T14:45:35;13.45;;;6.78;;
22007;SDS011;11168;56.976;24.168;2023-02-22T14:51:16;13.35;;;6.80;;
22007;SDS011;11168;56.976;24.168;2023-02-22T14:53:53;12.05;;;6.13;;
22007;SDS011;11168;56.976;24.168;2023-02-22T14:56:38;15.40;;;7.90;;
22007;SDS011;11168;56.976;24.168;2023-02-22T15:01:39;15.95;;;8.38;;
22007;SDS011;11168;56.976;24.168;2023-02-22T15:04:27;20.70;;;7.28;;
22007;SDS011;11168;56.976;24.168;2023-02-22T15:06:57;15.95;;;6.47;;
22007;SDS011;11168;56.976;24.168;2023-02-22T15:09:27;18.38;;;7.28;;
22007;SDS011;11168;56.976;24.168;2023-02-22T15:14:31;17.38;;;8.73;;
22007;SDS011;11168;56.976;24.168;2023-02-22T15:17:06;17.65;;;8.23;;
22007;SDS011;11168;56.976;24.168;2023-02-22T15:19:39;17.05;;;8.68;;
22007;SDS011;11168;56.976;24.168;2023-02-22T15:22:17;21.45;;;9.40;;
22007;SDS011;11168;56.976;24.168;2023-02-22T15:24:53;20.42;;;10.13;;
22007;SDS011;11168;56.976;24.168;2023-02-22T15:27:26;24.48;;;10.98;;
22007;SDS011;11168;56.976;24.168;2023-02-22T15:29:58;25.25;;;11.82;;
22007;SDS011;11168;56.976;24.168;2023-02-22T15:35:12;24.85;;;10.80;;
22007;SDS011;11168;56.976;24.168;2023-02-22T15:37:43;19.10;;;8.93;;
22007;SDS011;11168;56.976;24.168;2023-02-22T15:40:12;16.25;;;6.53;;
22007;SDS011;11168;56.976;24.168;2023-02-22T15:42:51;23.77;;;10.88;;
22007;SDS011;11168;56.976;24.168;2023-02-22T15:45:20;20.30;;;8.85;;
22007;SDS011;11168;56.976;24.168;2023-02-22T15:47:51;21.70;;;9.57;;
22007;SDS011;11168;56.976;24.168;2023-02-22T15:52:56;28.50;;;11.43;;
22007;SDS011;11168;56.976;24.168;2023-02-22T15:55:37;26.55;;;11.70;;
22007;SDS011;11168;56.976;24.168;2023-02-22T15:58:23;28.48;;;12.55;;
22007;SDS011;11168;56.976;24.168;2023-02-22T16:01:02;26.63;;;12.15;;
22007;SDS011;11168;56.976;24.168;2023-02-22T16:03:34;20.38;;;10.35;;
22007;SDS011;11168;56.976;24.168;2023-02-22T16:09:06;22.73;;;11.52;;
22007;SDS011;11168;56.976;24.168;2023-02-22T16:11:43;28.67;;;11.73;;
22007;SDS011;11168;56.976;24.168;2023-02-22T16:14:25;28.73;;;11.73;;
22007;SDS011;11168;56.976;24.168;2023-02-22T16:19:52;26.70;;;11.73;;
22007;SDS011;11168;56.976;24.168;2023-02-22T16:22:29;27.08;;;12.43;;
22007;SDS011;11168;56.976;24.168;2023-02-22T16:32:50;26.42;;;13.25;;
22007;SDS011;11168;56.976;24.168;2023-02-22T16:35:19;31.80;;;14.35;;
22007;SDS011;11168;56.976;24.168;2023-02-22T16:37:47;26.23;;;12.68;;
22007;SDS011;11168;56.976;24.168;2023-02-22T16:40:25;32.80;;;13.93;;
22007;SDS011;11168;56.976;24.168;2023-02-22T16:43:01;27.25;;;12.77;;
22007;SDS011;11168;56.976;24.168;2023-02-22T16:45:37;28.45;;;14.00;;
22007;SDS011;11168;56.976;24.168;2023-02-22T16:48:14;35.33;;;14.15;;
22007;SDS011;11168;56.976;24.168;2023-02-22T16:50:47;27.17;;;11.53;;
22007;SDS011;11168;56.976;24.168;2023-02-22T16:53:17;37.17;;;14.27;;
22007;SDS011;11168;56.976;24.168;2023-02-22T16:55:46;36.42;;;14.45;;
22007;SDS011;11168;56.976;24.168;2023-02-22T16:58:15;35.92;;;13.90;;
22007;SDS011;11168;56.976;24.168;2023-02-22T17:00:44;35.23;;;15.03;;
22007;SDS011;11168;56.976;24.168;2023-02-22T17:03:16;33.33;;;14.35;;
22007;SDS011;11168;56.976;24.168;2023-02-22T17:05:44;33.88;;;14.02;;
22007;SDS011;11168;56.976;24.168;2023-02-22T17:08:11;30.80;;;13.63;;
22007;SDS011;11168;56.976;24.168;2023-02-22T17:10:37;31.85;;;13.48;;
22007;SDS011;11168;56.976;24.168;2023-02-22T17:13:04;26.75;;;11.75;;
22007;SDS011;11168;56.976;24.168;2023-02-22T17:15:48;31.98;;;14.38;;
22007;SDS011;11168;56.976;24.168;2023-02-22T17:18:17;32.20;;;13.95;;
22007;SDS011;11168;56.976;24.168;2023-02-22T17:20:49;41.00;;;15.73;;
22007;SDS011;11168;56.976;24.168;2023-02-22T17:23:17;45.30;;;18.88;;